createdAt,value
2023-05-10T00:02:16.474Z,79.08
2023-05-10T00:07:16.306Z,79.80
2023-05-10T00:12:16.234Z,80.45
2023-05-10T00:17:16.169Z,79.74
2023-05-10T00:22:16.102Z,79.02
2023-05-10T00:27:16.036Z,79.43
2023-05-10T00:32:16.040Z,78.71
2023-05-10T00:37:15.906Z,78.10
2023-05-10T00:42:15.827Z,79.43
2023-05-10T00:47:15.829Z,79.87
2023-05-10T00:52:15.700Z,79.57
2023-05-10T00:57:15.643Z,79.67
2023-05-10T01:02:15.613Z,79.57
2023-05-10T01:07:15.505Z,78.96
2023-05-10T01:12:15.474Z,77.79
2023-05-10T01:17:15.376Z,77.49
2023-05-10T01:22:15.305Z,76.77
2023-05-10T01:27:15.244Z,76.22
2023-05-10T01:32:15.168Z,75.92
2023-05-10T01:37:15.110Z,75.10
2023-05-10T01:42:15.035Z,74.69
2023-05-10T01:47:14.972Z,74.69
2023-05-10T01:52:14.930Z,74.45
2023-05-10T01:57:14.837Z,74.56
2023-05-10T02:02:14.763Z,74.69
2023-05-10T02:07:14.705Z,74.56
2023-05-10T02:12:14.634Z,74.56
2023-05-10T02:17:14.577Z,74.56
2023-05-10T02:22:14.496Z,74.35
2023-05-10T02:27:14.440Z,74.04
2023-05-10T02:32:14.436Z,73.70
2023-05-10T02:37:14.312Z,73.29
2023-05-10T02:42:14.233Z,72.88
2023-05-10T02:47:14.178Z,72.75
2023-05-10T02:52:14.109Z,73.26
2023-05-10T02:57:14.052Z,73.87
2023-05-10T03:02:13.971Z,74.72
2023-05-10T03:07:13.902Z,74.62
2023-05-10T03:12:13.846Z,74.82
2023-05-10T03:17:13.770Z,75.23
2023-05-10T03:22:13.717Z,75.34
2023-05-10T03:27:13.643Z,74.07
2023-05-10T03:32:13.578Z,73.57
2023-05-10T03:37:13.518Z,73.43
2023-05-10T03:42:13.460Z,73.80
2023-05-10T03:47:13.368Z,73.90
2023-05-10T03:52:13.296Z,73.57
2023-05-10T03:57:13.234Z,71.53
2023-05-10T04:02:13.206Z,71.25
2023-05-10T04:07:13.113Z,70.00
2023-05-10T04:12:13.032Z,69.83
2023-05-10T04:17:13.103Z,68.28
2023-05-10T04:22:12.899Z,69.12
2023-05-10T04:27:12.841Z,68.38
2023-05-10T04:32:12.776Z,69.50
2023-05-10T04:37:12.707Z,70.31
2023-05-10T04:42:12.625Z,70.44
2023-05-10T04:47:12.781Z,71.46
2023-05-10T04:52:12.487Z,71.77
2023-05-10T04:57:12.426Z,72.07
2023-05-10T05:02:12.365Z,71.66
2023-05-10T05:07:12.292Z,71.33
2023-05-10T05:12:12.219Z,71.33
2023-05-10T05:17:12.157Z,70.98
2023-05-10T05:22:12.104Z,70.55
2023-05-10T05:27:12.045Z,70.65
2023-05-10T05:32:11.970Z,69.60
2023-05-10T05:37:11.893Z,68.08
2023-05-10T05:42:11.810Z,68.18
2023-05-10T05:47:11.755Z,68.28
2023-05-10T05:52:11.678Z,68.86
2023-05-10T05:57:11.622Z,69.00
2023-05-10T06:02:11.621Z,68.06
2023-05-10T06:07:11.523Z,67.88
2023-05-10T06:12:11.415Z,68.90
2023-05-10T06:17:11.363Z,69.40
2023-05-10T06:22:11.294Z,70.95
2023-05-10T06:27:11.229Z,71.87
2023-05-10T06:32:11.180Z,73.42
2023-05-10T06:37:11.106Z,74.74
2023-05-10T06:42:11.031Z,76.60
2023-05-10T06:47:10.961Z,77.82
2023-05-10T06:52:10.903Z,78.83
2023-05-10T06:57:23.306Z,81.31
2023-05-10T07:02:11.935Z,80.80
2023-05-10T07:07:10.718Z,82.73
2023-05-10T07:12:12.142Z,81.71
2023-05-10T07:17:10.662Z,81.61
2023-05-10T07:22:10.503Z,82.02
2023-05-10T07:27:10.444Z,81.57
2023-05-10T07:32:10.433Z,80.96
2023-05-10T07:37:10.309Z,80.56
2023-05-10T07:42:10.267Z,81.03
2023-05-10T07:47:10.184Z,81.33
2023-05-10T07:52:10.128Z,80.69
2023-05-10T07:57:10.046Z,81.29
2023-05-10T08:02:09.995Z,81.93
2023-05-10T08:07:09.946Z,83.65
2023-05-10T08:12:09.859Z,82.64
2023-05-10T08:17:09.786Z,82.03
2023-05-10T08:22:09.722Z,80.04
2023-05-10T08:27:09.653Z,81.12
2023-05-10T08:32:09.592Z,81.32
2023-05-10T08:37:09.581Z,81.32
2023-05-10T08:42:09.474Z,82.78
2023-05-10T08:47:09.450Z,82.33
2023-05-10T08:52:09.340Z,83.85
2023-05-10T08:57:09.262Z,83.20
2023-05-10T09:02:09.181Z,83.20
2023-05-10T09:07:09.120Z,84.22
2023-05-10T09:12:09.048Z,83.71
2023-05-10T09:17:09.039Z,84.38
2023-05-10T09:22:08.910Z,84.14
2023-05-10T09:27:08.848Z,82.92
2023-05-10T09:32:08.779Z,83.80
2023-05-10T09:37:08.720Z,82.48
2023-05-10T09:42:08.658Z,83.45
2023-05-10T09:47:08.586Z,84.46
2023-05-10T09:52:08.519Z,86.38
2023-05-10T09:57:08.438Z,85.37
2023-05-10T10:02:08.371Z,86.95
2023-05-10T10:07:08.302Z,86.85
2023-05-10T10:12:08.231Z,86.14
2023-05-10T10:17:09.117Z,86.14
2023-05-10T10:22:08.088Z,86.04
2023-05-10T10:27:08.042Z,86.40
2023-05-10T10:32:07.957Z,86.46
2023-05-10T10:37:07.897Z,85.45
2023-05-10T10:42:07.824Z,85.86
2023-05-10T10:47:07.879Z,85.76
2023-05-10T10:52:07.690Z,86.06
2023-05-10T10:57:07.643Z,84.61
2023-05-10T11:02:07.559Z,85.37
2023-05-10T11:07:07.503Z,84.16
2023-05-10T11:12:07.447Z,83.62
2023-05-10T11:17:07.495Z,81.50
2023-05-10T11:22:07.305Z,82.01
2023-05-10T11:27:07.252Z,83.45
2023-05-10T11:32:07.158Z,84.91
2023-05-10T11:37:07.115Z,84.89
2023-05-10T11:42:07.022Z,85.63
2023-05-10T11:47:07.001Z,86.74
2023-05-10T11:52:06.891Z,87.76
2023-05-10T11:57:06.854Z,88.76
2023-05-10T12:02:06.753Z,89.03
2023-05-10T12:07:06.708Z,88.28
2023-05-10T12:12:06.629Z,88.03
2023-05-10T12:17:06.583Z,85.98
2023-05-10T12:22:06.502Z,85.68
2023-05-10T12:27:06.426Z,85.47
2023-05-10T12:32:06.381Z,85.98
2023-05-10T12:37:06.292Z,86.28
2023-05-10T12:42:06.221Z,85.51
2023-05-10T12:47:06.185Z,86.02
2023-05-10T12:52:06.085Z,85.62
2023-05-10T12:57:06.042Z,86.22
2023-05-10T13:02:05.976Z,86.12
2023-05-10T13:07:05.903Z,86.22
2023-05-10T13:12:07.643Z,85.41
2023-05-10T13:17:05.821Z,84.47
2023-05-10T13:22:05.697Z,85.71
2023-05-10T13:27:05.629Z,85.21
2023-05-10T13:32:05.549Z,85.77
2023-05-10T13:37:05.487Z,85.57
2023-05-10T13:42:05.414Z,85.47
2023-05-10T13:47:05.389Z,84.67
2023-05-10T13:52:05.275Z,86.22
2023-05-10T13:57:05.220Z,86.73
2023-05-10T14:02:05.310Z,86.62
2023-05-10T14:07:05.089Z,86.22
2023-05-10T14:12:05.023Z,86.40
2023-05-10T14:17:04.967Z,88.87
2023-05-10T14:22:04.873Z,88.81
2023-05-10T14:27:04.827Z,90.78
2023-05-10T14:32:04.793Z,90.78
2023-05-10T14:37:04.689Z,91.29
2023-05-10T14:42:04.642Z,90.49
2023-05-10T14:47:04.556Z,90.49
2023-05-10T14:52:04.466Z,90.99
2023-05-10T14:57:04.403Z,90.69
2023-05-10T15:02:04.330Z,90.77
2023-05-10T15:07:04.269Z,92.33
2023-05-10T15:12:04.200Z,93.73
2023-05-10T15:17:04.136Z,95.15
2023-05-10T15:22:04.073Z,96.27
2023-05-10T15:27:04.014Z,96.36
2023-05-10T15:32:03.950Z,95.76
2023-05-10T15:37:03.907Z,96.61
2023-05-10T15:42:03.800Z,96.27
2023-05-10T15:47:03.855Z,94.75
2023-05-10T15:52:03.663Z,95.25
2023-05-10T15:57:03.630Z,95.86
2023-05-10T16:02:03.595Z,95.11
2023-05-10T16:07:03.487Z,93.38
2023-05-10T16:12:03.415Z,91.97
2023-05-10T16:17:03.460Z,91.30
2023-05-10T16:22:03.286Z,92.01
2023-05-10T16:27:03.222Z,90.55
2023-05-10T16:32:03.151Z,89.34
2023-05-10T16:37:03.088Z,89.34
2023-05-10T16:42:03.011Z,88.99
2023-05-10T16:47:02.955Z,88.39
2023-05-10T16:52:02.882Z,87.54
2023-05-10T16:57:02.815Z,87.23
2023-05-10T17:02:02.765Z,86.93
2023-05-10T17:07:02.685Z,87.54
2023-05-10T17:12:02.613Z,87.54
2023-05-10T17:17:02.638Z,88.14
2023-05-10T17:22:02.476Z,89.20
2023-05-10T17:27:02.419Z,90.20
2023-05-10T17:32:02.390Z,90.35
2023-05-10T17:37:02.288Z,90.71
2023-05-10T17:42:02.219Z,91.46
2023-05-10T17:47:02.156Z,91.77
2023-05-10T17:52:02.084Z,92.48
2023-05-10T17:57:02.025Z,92.52
2023-05-10T18:02:01.986Z,92.92
2023-05-10T18:07:01.980Z,93.63
2023-05-10T18:12:01.813Z,94.24
2023-05-10T18:17:01.772Z,94.99
2023-05-10T18:22:01.673Z,95.40
2023-05-10T18:27:01.608Z,95.60
2023-05-10T18:32:01.560Z,96.00
2023-05-10T18:37:01.485Z,96.11
2023-05-10T18:42:01.395Z,96.21
2023-05-10T18:47:01.347Z,96.36
2023-05-10T18:52:01.274Z,96.66
2023-05-10T18:57:01.203Z,96.66
2023-05-10T19:02:01.245Z,96.76
2023-05-10T19:07:01.060Z,96.96
2023-05-10T19:12:01.000Z,97.07
2023-05-10T19:17:01.363Z,97.07
2023-05-10T19:22:01.467Z,97.16
2023-05-10T19:27:00.807Z,97.16
2023-05-10T19:32:00.943Z,97.16
2023-05-10T19:37:00.669Z,97.27
2023-05-10T19:42:00.626Z,97.37
2023-05-10T19:47:00.559Z,97.52
2023-05-10T19:52:00.481Z,97.61
2023-05-10T19:57:00.393Z,97.72
2023-05-10T20:02:00.327Z,97.82
2023-05-10T20:07:00.260Z,98.02
2023-05-10T20:12:00.188Z,98.12
2023-05-10T20:17:00.214Z,98.48
2023-05-10T20:22:00.071Z,98.68
2023-05-10T20:27:00.048Z,98.57
2023-05-10T20:31:59.969Z,98.17
2023-05-10T20:36:59.848Z,97.46
2023-05-10T20:41:59.765Z,96.60
2023-05-10T20:46:59.706Z,96.29
2023-05-10T20:51:59.629Z,95.78
2023-05-10T20:56:59.572Z,95.68
2023-05-10T21:02:00.120Z,95.72
2023-05-10T21:06:59.433Z,95.93
2023-05-10T21:11:59.371Z,96.23
2023-05-10T21:16:59.293Z,96.33
2023-05-10T21:21:59.229Z,96.38
2023-05-10T21:26:59.168Z,96.28
2023-05-10T21:31:59.134Z,96.28
2023-05-10T21:36:59.033Z,96.38
2023-05-10T21:41:58.952Z,96.48
2023-05-10T21:46:58.913Z,96.48
2023-05-10T21:51:58.823Z,96.68
2023-05-10T21:56:58.774Z,96.78
2023-05-10T22:01:58.709Z,96.83
2023-05-10T22:06:58.633Z,97.03
2023-05-10T22:11:58.550Z,97.24
2023-05-10T22:16:58.498Z,97.44
2023-05-10T22:21:58.408Z,97.54
2023-05-10T22:26:58.354Z,97.85
2023-05-10T22:31:58.284Z,98.15
2023-05-10T22:36:58.228Z,98.26
2023-05-10T22:41:58.150Z,98.26
2023-05-10T22:46:58.207Z,98.35
2023-05-10T22:51:58.016Z,98.60
2023-05-10T22:56:57.972Z,98.91
2023-05-10T23:01:57.905Z,98.91
2023-05-10T23:06:57.841Z,98.80
2023-05-10T23:11:57.767Z,98.71
2023-05-10T23:16:57.705Z,98.71
2023-05-10T23:21:57.624Z,98.80
2023-05-10T23:26:57.573Z,98.71
2023-05-10T23:31:57.543Z,98.91
2023-05-10T23:36:57.438Z,99.42
2023-05-10T23:41:57.365Z,99.72
2023-05-10T23:46:57.307Z,99.93
2023-05-10T23:51:57.234Z,99.99
2023-05-10T23:56:57.178Z,99.99
